createdAt,value
2018-11-21T00:01:46.809Z,36.03
2018-11-21T00:04:15.840Z,31.40
2018-11-21T00:06:45.143Z,34.27
2018-11-21T00:09:14.159Z,31.23
2018-11-21T00:11:43.152Z,34.03
2018-11-21T00:14:12.152Z,32.57
2018-11-21T00:16:41.249Z,36.50
2018-11-21T00:19:10.372Z,31.43
2018-11-21T00:21:39.347Z,32.23
2018-11-21T00:24:08.376Z,31.20
2018-11-21T00:26:37.392Z,34.10
2018-11-21T00:29:06.449Z,29.40
2018-11-21T00:31:35.481Z,36.80
2018-11-21T00:34:04.520Z,33.67
2018-11-21T00:36:33.594Z,39.57
2018-11-21T00:39:02.568Z,38.43
2018-11-21T00:41:31.705Z,31.83
2018-11-21T00:44:00.661Z,38.60
2018-11-21T00:46:31.159Z,39.37
2018-11-21T00:49:00.159Z,35.70
2018-11-21T00:51:29.160Z,32.67
2018-11-21T00:53:58.217Z,34.63
2018-11-21T00:56:27.165Z,33.60
2018-11-21T00:58:56.304Z,35.90
2018-11-21T01:01:25.285Z,32.93
2018-11-21T01:03:54.261Z,30.60
2018-11-21T01:06:23.271Z,32.90
2018-11-21T01:08:52.276Z,30.90
2018-11-21T01:11:21.456Z,40.63
2018-11-21T01:13:50.461Z,34.00
2018-11-21T01:16:19.439Z,34.60
2018-11-21T01:18:48.459Z,34.63
2018-11-21T01:21:17.439Z,35.80
2018-11-21T01:23:46.446Z,40.10
2018-11-21T01:26:15.530Z,30.90
2018-11-21T01:28:44.564Z,33.97
2018-11-21T01:31:13.564Z,29.20
2018-11-21T01:33:42.543Z,35.10
2018-11-21T01:36:11.589Z,32.57
2018-11-21T01:38:40.658Z,31.73
2018-11-21T01:41:09.731Z,30.60
2018-11-21T01:43:38.717Z,34.80
2018-11-21T01:46:07.729Z,33.73
2018-11-21T01:48:36.922Z,32.30
2018-11-21T01:51:05.938Z,36.47
2018-11-21T01:53:35.252Z,29.37
2018-11-21T01:56:04.458Z,37.53
2018-11-21T01:58:33.460Z,32.93
2018-11-21T02:01:02.584Z,32.07
2018-11-21T02:03:31.584Z,25.03
2018-11-21T02:06:00.667Z,33.13
2018-11-21T02:08:29.656Z,34.03
2018-11-21T02:10:58.660Z,37.23
2018-11-21T02:13:27.716Z,34.30
2018-11-21T02:15:56.704Z,36.17
2018-11-21T02:18:25.705Z,35.80
2018-11-21T02:20:54.720Z,36.27
2018-11-21T02:23:23.790Z,36.20
2018-11-21T02:25:52.850Z,35.30
2018-11-21T02:28:21.876Z,33.97
2018-11-21T02:30:51.056Z,36.83
2018-11-21T02:33:20.065Z,37.83
2018-11-21T02:35:49.127Z,36.10
2018-11-21T02:38:18.301Z,37.67
2018-11-21T02:40:47.329Z,38.23
2018-11-21T02:43:16.372Z,34.27
2018-11-21T02:45:45.576Z,34.77
2018-11-21T02:48:14.595Z,41.43
2018-11-21T02:50:43.579Z,37.00
2018-11-21T02:53:12.757Z,40.00
2018-11-21T02:55:41.886Z,39.83
2018-11-21T02:58:13.870Z,36.73
2018-11-21T03:00:43.080Z,34.53
2018-11-21T03:03:12.107Z,42.23
2018-11-21T03:05:41.120Z,40.20
2018-11-21T03:08:10.155Z,42.60
2018-11-21T03:10:39.192Z,41.70
2018-11-21T03:13:08.267Z,40.67
2018-11-21T03:15:37.300Z,37.83
2018-11-21T03:18:06.328Z,43.87
2018-11-21T03:20:35.319Z,40.20
2018-11-21T03:23:04.352Z,42.60
2018-11-21T03:25:33.553Z,43.43
2018-11-21T03:28:02.549Z,41.07
2018-11-21T03:30:31.903Z,45.87
2018-11-21T03:33:00.905Z,44.20
2018-11-21T03:35:30.095Z,44.03
2018-11-21T03:37:59.118Z,42.53
2018-11-21T03:40:28.123Z,44.57
2018-11-21T03:42:57.159Z,42.73
2018-11-21T03:45:26.178Z,46.20
2018-11-21T03:47:55.187Z,43.30
2018-11-21T03:50:24.209Z,35.30
2018-11-21T03:52:53.220Z,36.10
2018-11-21T03:55:22.232Z,45.50
2018-11-21T03:57:51.223Z,47.80
2018-11-21T04:00:20.241Z,49.73
2018-11-21T04:02:49.219Z,45.50
2018-11-21T04:05:18.262Z,36.10
2018-11-21T04:07:47.238Z,46.17
2018-11-21T04:10:16.432Z,43.70
2018-11-21T04:12:45.469Z,46.17
2018-11-21T04:15:14.595Z,48.20
2018-11-21T04:17:43.592Z,43.50
2018-11-21T04:20:12.618Z,47.83
2018-11-21T04:22:41.687Z,41.10
2018-11-21T04:25:11.957Z,45.70
2018-11-21T04:27:41.364Z,42.20
2018-11-21T04:30:12.474Z,47.88
2018-11-21T04:32:41.768Z,45.53
2018-11-21T04:35:10.769Z,43.20
2018-11-21T04:37:39.799Z,44.40
2018-11-21T04:40:08.888Z,43.00
2018-11-21T04:42:38.343Z,38.87
2018-11-21T04:45:08.818Z,43.07
2018-11-21T04:47:37.840Z,44.90
2018-11-21T04:50:07.367Z,44.07
2018-11-21T04:52:36.408Z,43.97
2018-11-21T04:55:06.807Z,44.63
2018-11-21T04:57:36.339Z,47.13
2018-11-21T05:00:07.645Z,44.60
2018-11-21T05:02:36.663Z,42.53
2018-11-21T05:05:07.520Z,45.77
2018-11-21T05:07:36.554Z,48.40
2018-11-21T05:10:06.697Z,44.77
2018-11-21T05:12:36.100Z,44.50
2018-11-21T05:15:05.807Z,48.47
2018-11-21T05:17:34.866Z,39.60
2018-11-21T05:20:03.926Z,40.00
2018-11-21T05:22:32.966Z,43.33
2018-11-21T05:25:01.987Z,45.43
2018-11-21T05:27:31.054Z,42.03
2018-11-21T05:30:00.098Z,44.27
2018-11-21T05:32:29.092Z,44.17
2018-11-21T05:34:58.372Z,39.97
2018-11-21T05:37:27.393Z,50.93
2018-11-21T05:39:56.397Z,46.90
2018-11-21T05:42:25.416Z,48.00
2018-11-21T05:44:54.501Z,44.57
2018-11-21T05:47:23.487Z,42.30
2018-11-21T05:49:52.543Z,45.97
2018-11-21T05:52:21.561Z,53.60
2018-11-21T05:54:50.561Z,46.53
2018-11-21T05:57:19.765Z,44.23
2018-11-21T05:59:48.822Z,47.03
2018-11-21T06:02:18.287Z,46.63
2018-11-21T06:04:47.417Z,41.30
2018-11-21T06:07:16.662Z,45.00
2018-11-21T06:09:45.733Z,45.30
2018-11-21T06:12:14.759Z,49.47
2018-11-21T06:14:43.801Z,47.57
2018-11-21T06:17:13.087Z,43.40
2018-11-21T06:19:42.130Z,50.37
2018-11-21T06:22:11.161Z,47.00
2018-11-21T06:24:40.156Z,45.90
2018-11-21T06:27:09.423Z,52.33
2018-11-21T06:29:38.775Z,60.43
2018-11-21T06:32:07.816Z,43.57
2018-11-21T06:34:37.041Z,57.60
2018-11-21T06:37:06.047Z,47.90
2018-11-21T06:39:35.084Z,56.00
2018-11-21T06:42:04.095Z,52.97
2018-11-21T06:44:33.293Z,43.13
2018-11-21T06:47:02.481Z,50.20
2018-11-21T06:49:31.506Z,62.97
2018-11-21T06:52:00.700Z,54.13
2018-11-21T06:54:29.761Z,68.63
2018-11-21T06:56:58.808Z,65.50
2018-11-21T06:59:47.171Z,53.20
2018-11-21T07:02:16.239Z,53.77
2018-11-21T07:04:45.240Z,52.23
2018-11-21T07:07:14.368Z,51.70
2018-11-21T07:09:44.868Z,55.13
2018-11-21T07:12:13.908Z,51.90
2018-11-21T07:14:43.113Z,54.50
2018-11-21T07:17:12.299Z,54.23
2018-11-21T07:19:41.280Z,57.80
2018-11-21T07:22:10.305Z,59.13
2018-11-21T07:24:39.336Z,55.07
2018-11-21T07:27:08.560Z,58.50
2018-11-21T07:29:37.627Z,64.07
2018-11-21T07:32:06.663Z,54.00
2018-11-21T07:34:35.695Z,54.77
2018-11-21T07:37:04.688Z,52.87
2018-11-21T07:39:33.749Z,53.17
2018-11-21T07:42:04.107Z,52.03
2018-11-21T07:44:33.101Z,52.53
2018-11-21T07:47:02.111Z,53.70
2018-11-21T07:49:31.153Z,47.93
2018-11-21T07:52:00.173Z,45.47
2018-11-21T07:54:29.344Z,52.20
2018-11-21T07:57:31.747Z,45.43
2018-11-21T08:00:58.459Z,63.30
2018-11-21T08:03:29.235Z,46.53
2018-11-21T08:06:07.295Z,54.30
2018-11-21T08:08:55.489Z,45.13
2018-11-21T08:11:51.363Z,48.33
2018-11-21T08:14:38.223Z,44.83
2018-11-21T08:17:19.015Z,50.80
2018-11-21T08:20:07.374Z,47.50
2018-11-21T08:22:54.393Z,54.87
2018-11-21T08:25:54.701Z,49.07
2018-11-21T08:28:30.680Z,49.13
2018-11-21T08:31:00.009Z,44.00
2018-11-21T08:33:33.878Z,52.57
2018-11-21T08:35:59.288Z,48.53
2018-11-21T08:38:28.451Z,60.37
2018-11-21T08:40:57.468Z,51.57
2018-11-21T08:43:26.462Z,48.97
2018-11-21T08:45:55.558Z,45.17
2018-11-21T08:48:24.960Z,48.93
2018-11-21T08:50:54.160Z,39.93
2018-11-21T08:53:23.573Z,45.60
2018-11-21T08:55:52.562Z,42.77
2018-11-21T08:58:21.744Z,45.33
2018-11-21T09:00:50.962Z,43.17
2018-11-21T09:03:20.133Z,42.23
2018-11-21T09:05:49.182Z,51.17
2018-11-21T09:08:18.187Z,38.23
2018-11-21T09:10:47.177Z,43.43
2018-11-21T09:13:16.343Z,48.67
2018-11-21T09:15:45.857Z,43.63
2018-11-21T09:18:15.017Z,43.30
2018-11-21T09:20:44.135Z,42.53
2018-11-21T09:23:13.127Z,41.37
2018-11-21T09:25:42.175Z,46.03
2018-11-21T09:28:11.238Z,42.70
2018-11-21T09:30:40.287Z,45.53
2018-11-21T09:33:09.340Z,40.03
2018-11-21T09:35:38.364Z,38.37
2018-11-21T09:38:07.373Z,41.73
2018-11-21T09:40:36.442Z,33.60
2018-11-21T09:43:05.952Z,34.40
2018-11-21T09:45:34.983Z,39.23
2018-11-21T09:48:04.054Z,34.60
2018-11-21T09:50:33.990Z,35.47
2018-11-21T09:53:03.362Z,37.57
2018-11-21T09:55:32.418Z,34.30
2018-11-21T09:58:01.506Z,33.57
2018-11-21T10:01:07.240Z,38.77
2018-11-21T10:03:37.545Z,33.53
2018-11-21T10:06:23.886Z,37.17
2018-11-21T10:08:54.592Z,35.50
2018-11-21T10:11:23.670Z,35.87
2018-11-21T10:13:52.985Z,35.10
2018-11-21T10:16:22.048Z,32.20
2018-11-21T10:18:52.764Z,34.43
2018-11-21T10:21:23.494Z,30.60
2018-11-21T10:23:52.851Z,35.67
2018-11-21T10:26:22.054Z,36.50
2018-11-21T10:28:52.074Z,29.07
2018-11-21T10:31:21.229Z,36.27
2018-11-21T10:33:50.636Z,33.70
2018-11-21T10:36:19.706Z,29.23
2018-11-21T10:38:48.881Z,31.97
2018-11-21T10:41:17.905Z,34.77
2018-11-21T10:43:47.014Z,29.97
2018-11-21T10:46:16.087Z,31.93
2018-11-21T10:48:45.290Z,30.23
2018-11-21T10:51:15.047Z,31.47
2018-11-21T10:53:43.385Z,35.77
2018-11-21T10:56:12.608Z,45.70
2018-11-21T10:58:41.776Z,35.40
2018-11-21T11:01:24.453Z,32.93
2018-11-21T11:03:59.139Z,36.67
2018-11-21T11:06:46.231Z,30.13
2018-11-21T11:09:49.673Z,31.47
2018-11-21T11:12:37.898Z,28.47
2018-11-21T11:15:38.135Z,30.63
2018-11-21T11:18:29.329Z,38.30
2018-11-21T11:21:16.339Z,42.30
2018-11-21T11:24:12.902Z,32.97
2018-11-21T11:26:50.088Z,29.50
2018-11-21T11:29:38.359Z,30.53
2018-11-21T11:32:35.580Z,25.90
2018-11-21T11:35:22.863Z,30.57
2018-11-21T11:38:13.411Z,27.17
2018-11-21T11:41:04.681Z,33.33
2018-11-21T11:43:51.733Z,29.60
2018-11-21T11:46:52.189Z,29.27
2018-11-21T11:49:39.594Z,26.50
2018-11-21T11:52:42.968Z,32.50
2018-11-21T11:55:37.245Z,32.77
2018-11-21T11:58:25.450Z,29.33
2018-11-21T12:01:07.410Z,28.37
2018-11-21T12:03:57.813Z,37.13
2018-11-21T12:06:49.184Z,30.33
2018-11-21T12:09:49.358Z,27.07
2018-11-21T12:12:44.045Z,25.53
2018-11-21T12:15:31.206Z,28.70
2018-11-21T12:18:34.742Z,25.53
2018-11-21T12:21:22.931Z,25.43
2018-11-21T12:24:11.097Z,34.17
2018-11-21T12:27:08.539Z,21.60
2018-11-21T12:30:03.489Z,24.60
2018-11-21T12:32:50.491Z,29.30
2018-11-21T12:35:44.812Z,24.30
2018-11-21T12:38:36.180Z,24.60
2018-11-21T12:41:27.489Z,20.20
2018-11-21T12:44:14.838Z,23.37
2018-11-21T12:47:04.928Z,24.50
2018-11-21T12:49:53.171Z,34.87
2018-11-21T12:52:50.274Z,23.93
2018-11-21T12:55:50.737Z,30.60
2018-11-21T12:58:37.797Z,34.33
2018-11-21T13:01:32.217Z,22.93
2018-11-21T13:04:20.514Z,27.20
2018-11-21T13:07:11.624Z,22.43
2018-11-21T13:10:08.224Z,21.13
2018-11-21T13:13:02.480Z,24.83
2018-11-21T13:16:02.722Z,22.00
2018-11-21T13:19:06.135Z,19.93
2018-11-21T13:21:58.394Z,17.43
2018-11-21T13:24:45.837Z,17.67
2018-11-21T13:27:32.915Z,22.03
2018-11-21T13:30:24.272Z,15.07
2018-11-21T13:33:04.343Z,17.97
2018-11-21T13:35:46.027Z,19.47
2018-11-21T13:38:43.845Z,20.40
2018-11-21T13:41:32.050Z,25.27
2018-11-21T13:44:26.247Z,24.33
2018-11-21T13:47:17.395Z,24.70
2018-11-21T13:50:05.328Z,19.53
